Windsor Locks, Connecticut
Current Conditions -  °F | °C
As of 2:51 PM on Wednesday 28 Jan 2015 (Local Time) from KBDL Reporting Station
Few Clouds Few Clouds  
Wind Chill: 17°   Ceiling: Unl
Heat Index: 26°   Visibility: 10mi
Dew Point:   Wind: 9mph
Humidity: 49%   Direction: 30°NNE
Pressure: 30.03"   Gusts: NA
Location:  41.93°N, 72.63°W
Report Text: KBDL 281951Z 03008KT 350V070 10SM FEW140 M03/M13 A3003 RMK AO2 SLP170 T10331128
Loading
Personal Weather Stations






























Interactive Weather Map New forecast layout! Learn more

10-Day Weather Forecast

Advertisements
Track Severe Weather on mobile